Maike D — V2FO4 — position and weather

sailwx.info

Track history (hours):
 
Tides and Currents Weather Stations Pressure Air Temp Water Temp Dewpoint Dewpoint Depression Visibility Wind Speed Wind Dir Waves Ship Positions

Maike D

Last reported at 2015-Jan-25 17:33 UTC. Time now 2015-Jan-27 14:26 UTC.
Position N 55°32' E 015°06'.

Length 133 m; draft 7 m.

Type: Ship (hazmat cat A). MMSI: 305739000.

Date/timePositionNaut miles runAvg speedWind from/ knotsBaromVisibWave heightAir tempDewpointWater temp
2015-Jan-25 17:33N 55°32' E 015°06'1915.7
2015-Jan-25 16:20N 55°22' E 014°38'1515.6
2015-Jan-25 15:23N 55°10' E 014°22'1315.4
2015-Jan-25 14:33N 55°01' E 014°07'1915.7
2015-Jan-25 13:21N 54°55' E 013°36'1715.4
2015-Jan-25 12:16N 54°50' E 013°08'2716.0
2015-Jan-25 10:33N 54°38' E 012°25'1515.0
2015-Jan-25 09:33N 54°25' E 012°11'1515.2
2015-Jan-25 08:33N 54°25' E 011°45'1515.3
2015-Jan-25 07:33N 54°32' E 011°21'1514.6
2015-Jan-25 06:33N 54°35' E 010°57'1615.7
2015-Jan-25 05:33N 54°32' E 010°30'1212.4
2015-Jan-25 04:33N 54°25' E 010°13'4 3.9
2015-Jan-25 03:33N 54°22' E 010°08'6 6.0
2015-Jan-25 02:33N 54°21' E 009°58'6 6.1
2015-Jan-25 01:33N 54°22' E 009°48'8 7.7
2015-Jan-25 00:32N 54°16' E 009°38'4 4.2
2015-Jan-24 23:33N 54°13' E 009°35'8 8.2
2015-Jan-24 22:33N 54°09' E 009°22'8 7.7
2015-Jan-24 21:33N 54°02' E 009°18'8 8.3
2015-Jan-24 20:33N 53°55' E 009°11'2 1.9
2015-Jan-24 19:33N 53°53' E 009°08'2 1.9
2015-Jan-24 18:33N 53°53' E 009°05'0 0.1
2015-Jan-24 17:33N 53°53' E 009°05'0 0.5
2015-Jan-24 16:33N 53°52' E 009°05'1413.5
2015-Jan-24 15:33N 53°53' E 008°42'1615.7
2015-Jan-24 14:33N 53°60' E 008°18'1414.2
2015-Jan-24 13:32N 53°57' E 007°53'1817.0
2015-Jan-24 12:29N 53°54' E 007°23'3917.5
2015-Jan-24 10:17N 53°45' E 006°20'1317.8
2015-Jan-24 09:33N 53°41' E 005°59'1817.8
2015-Jan-24 08:34N 53°35' E 005°31'1817.8
2015-Jan-24 07:33N 53°29' E 005°03'2116.5
2015-Jan-24 06:18N 53°16' E 004°35'1317.3
2015-Jan-24 05:34N 53°05' E 004°25'1717.0
2015-Jan-24 04:33N 52°50' E 004°12'1616.3
2015-Jan-24 03:34N 52°39' E 003°52'6114.8
2015-Jan-23 23:26N 51°42' E 003°16'910.6
2015-Jan-23 22:33N 51°34' E 003°24'1010.6
2015-Jan-23 21:33N 51°26' E 003°35'1312.8
2015-Jan-23 20:34N 51°22' E 003°54'1110.9
2015-Jan-23 19:33N 51°24' E 004°11'5 4.9
2015-Jan-23 18:33N 51°21' E 004°17'1 0.7
2015-Jan-23 17:33N 51°20' E 004°18'1 1.2
2015-Jan-23 16:32N 51°19' E 004°19'0 0.0
2015-Jan-23 15:32N 51°19' E 004°19'0 0.0
2015-Jan-23 14:31N 51°19' E 004°19'0 0.0
2015-Jan-23 13:31N 51°19' E 004°19'0 0.0
2015-Jan-23 12:28N 51°19' E 004°19'0 0.0
2015-Jan-23 11:25N 51°19' E 004°19'0 0.0
2015-Jan-23 10:31N 51°19' E 004°19'0 0.0
2015-Jan-23 09:28N 51°19' E 004°19'0 0.0
2015-Jan-23 08:31N 51°19' E 004°19'0 0.0
2015-Jan-23 07:28N 51°19' E 004°19'0 0.0
2015-Jan-23 06:22N 51°19' E 004°19'0 0.0
2015-Jan-23 05:28N 51°19' E 004°19'0 0.0
2015-Jan-23 04:25N 51°19' E 004°19'0 0.4
2015-Jan-23 03:33N 51°19' E 004°19'3 2.7
2015-Jan-23 02:33N 51°17' E 004°20'2 2.4
2015-Jan-23 01:33N 51°18' E 004°17'10 9.8
2015-Jan-23 00:33N 51°23' E 004°03'7 6.7
2015-Jan-22 23:33N 51°21' E 003°52'9 8.7
2015-Jan-22 22:33N 51°26' E 003°41'1111.1
2015-Jan-22 21:33N 51°32' E 003°26'1312.8
2015-Jan-22 20:33N 51°42' E 003°15'8 7.6
2015-Jan-22 19:31N 51°49' E 003°22'0 0.1
2015-Jan-22 17:16N 51°49' E 003°22'0 0.1
2015-Jan-22 16:28N 51°49' E 003°22'0 0.1
2015-Jan-22 15:28N 51°49' E 003°22'0 0.0
2015-Jan-22 03:21N 51°49' E 003°22'0 0.0
2015-Jan-22 02:33N 51°49' E 003°22'0 0.1
2015-Jan-22 00:12N 51°49' E 003°22'0 0.0
2015-Jan-21 22:33N 51°49' E 003°22'0 0.0
2015-Jan-21 21:27N 51°49' E 003°22'0 0.0
2015-Jan-21 20:33N 51°49' E 003°22'0 0.1
2015-Jan-21 19:33N 51°49' E 003°22'0 0.1
2015-Jan-21 18:24N 51°49' E 003°22'0 0.1
2015-Jan-21 17:33N 51°49' E 003°22'0 0.0
2015-Jan-21 16:18N 51°49' E 003°22'4 5.3
2015-Jan-21 15:31N 51°53' E 003°21'1111.9
2015-Jan-21 14:33N 52°05' E 003°22'1212.0
2015-Jan-21 13:30N 52°17' E 003°26'9313.3
2015-Jan-21 06:33N 53°32' E 004°55'1212.4
2015-Jan-21 05:33N 53°36' E 005°15'1212.4
2015-Jan-21 04:33N 53°40' E 005°35'1414.3
2015-Jan-21 03:33N 53°45' E 005°57'4614.7
2015-Jan-21 00:25N 53°58' E 007°13'1213.9
2015-Jan-20 23:33N 54°00' E 007°32'1313.2
2015-Jan-20 22:33N 54°01' E 007°55'1010.2
2015-Jan-20 21:33N 54°02' E 008°12'3 3.4
2015-Jan-20 20:33N 54°00' E 008°17'7 7.5
2015-Jan-20 19:33N 53°59' E 008°30'1010.5
2015-Jan-20 18:33N 53°52' E 008°44'1212.2
2015-Jan-20 17:33N 53°52' E 009°05'1211.6
2015-Jan-20 16:33N 53°48' E 009°23'1111.3
2015-Jan-20 15:33N 53°38' E 009°32'9 9.3
2015-Jan-20 14:33N 53°34' E 009°46'7 7.0
2015-Jan-20 13:33N 53°31' E 009°56'0 0.3
2015-Jan-20 12:32N 53°30' E 009°56'0 0.0
2015-Jan-20 11:32N 53°30' E 009°56'0 0.0
2015-Jan-20 10:32N 53°30' E 009°56'0 0.0
2015-Jan-20 09:32N 53°30' E 009°56'0 0.0
2015-Jan-20 08:31N 53°30' E 009°56'3 2.6
2015-Jan-20 07:33N 53°32' E 009°54'1010.3
2015-Jan-20 06:33N 53°35' E 009°37'1212.2
2015-Jan-20 05:33N 53°45' E 009°25'1111.5
2015-Jan-20 04:33N 53°53' E 009°11'2 1.7
2015-Jan-20 03:33N 53°54' E 009°10'8 8.2
2015-Jan-20 02:33N 54°01' E 009°18'8 8.1
2015-Jan-20 01:31N 54°09' E 009°22'7 5.3
2015-Jan-20 00:13N 54°12' E 009°33'3 4.0
2015-Jan-19 23:31N 54°14' E 009°36'7 6.9
2015-Jan-19 22:33N 54°19' E 009°43'6 6.5
2015-Jan-19 21:33N 54°21' E 009°54'6 5.8
2015-Jan-19 20:33N 54°22' E 010°04'3 2.9
2015-Jan-19 19:33N 54°22' E 010°08'1 1.0
2015-Jan-19 18:33N 54°22' E 010°10'9 7.6
2015-Jan-19 17:26N 54°30' E 010°18'6 7.0
2015-Jan-19 16:32N 54°35' E 010°24'20 9.0
2015-Jan-19 14:22N 54°36' E 010°58'1316.6
2015-Jan-19 13:33N 54°33' E 011°21'1716.8
2015-Jan-19 12:33N 54°27' E 011°47'1514.6
2015-Jan-19 11:33N 54°30' E 012°12'1715.9
2015-Jan-19 10:28N 54°43' E 012°31'3816.4
2015-Jan-19 08:10N 54°58' E 013°32'1615.2
2015-Jan-19 07:08N 55°03' E 013°57'915.0
2015-Jan-19 06:33N 55°09' E 014°09'1616.0
2015-Jan-19 05:33N 55°21' E 014°28'1615.7
2015-Jan-19 04:33N 55°30' E 014°49'1515.2
2015-Jan-19 03:33N 55°38' E 015°13'128 8.9
2015-Jan-18 13:07N 57°19' E 017°35'  
Track history (hours):
 
Tides and Currents Weather Stations Pressure Air Temp Water Temp Dewpoint Dewpoint Depression Visibility Wind Speed Wind Dir Waves Ship Positions

Maike D

Last reported at 2015-Jan-25 17:33 UTC. Time now 2015-Jan-27 14:26 UTC.
Position N 55°32' E 015°06'.

Length 133 m; draft 7 m.

Type: Ship (hazmat cat A). MMSI: 305739000.

Date/timePositionNaut miles runAvg speedWind from/ knotsBaromVisibWave heightAir tempDewpointWater temp
2015-Jan-25 17:33N 55°32' E 015°06'1915.7
2015-Jan-25 16:20N 55°22' E 014°38'1515.6
2015-Jan-25 15:23N 55°10' E 014°22'1315.4
2015-Jan-25 14:33N 55°01' E 014°07'1915.7
2015-Jan-25 13:21N 54°55' E 013°36'1715.4
2015-Jan-25 12:16N 54°50' E 013°08'2716.0
2015-Jan-25 10:33N 54°38' E 012°25'1515.0
2015-Jan-25 09:33N 54°25' E 012°11'1515.2
2015-Jan-25 08:33N 54°25' E 011°45'1515.3
2015-Jan-25 07:33N 54°32' E 011°21'1514.6
2015-Jan-25 06:33N 54°35' E 010°57'1615.7
2015-Jan-25 05:33N 54°32' E 010°30'1212.4
2015-Jan-25 04:33N 54°25' E 010°13'4 3.9
2015-Jan-25 03:33N 54°22' E 010°08'6 6.0
2015-Jan-25 02:33N 54°21' E 009°58'6 6.1
2015-Jan-25 01:33N 54°22' E 009°48'8 7.7
2015-Jan-25 00:32N 54°16' E 009°38'4 4.2
2015-Jan-24 23:33N 54°13' E 009°35'8 8.2
2015-Jan-24 22:33N 54°09' E 009°22'8 7.7
2015-Jan-24 21:33N 54°02' E 009°18'8 8.3
2015-Jan-24 20:33N 53°55' E 009°11'2 1.9
2015-Jan-24 19:33N 53°53' E 009°08'2 1.9
2015-Jan-24 18:33N 53°53' E 009°05'0 0.1
2015-Jan-24 17:33N 53°53' E 009°05'0 0.5
2015-Jan-24 16:33N 53°52' E 009°05'1413.5
2015-Jan-24 15:33N 53°53' E 008°42'1615.7
2015-Jan-24 14:33N 53°60' E 008°18'1414.2
2015-Jan-24 13:32N 53°57' E 007°53'1817.0
2015-Jan-24 12:29N 53°54' E 007°23'3917.5
2015-Jan-24 10:17N 53°45' E 006°20'1317.8
2015-Jan-24 09:33N 53°41' E 005°59'1817.8
2015-Jan-24 08:34N 53°35' E 005°31'1817.8
2015-Jan-24 07:33N 53°29' E 005°03'2116.5
2015-Jan-24 06:18N 53°16' E 004°35'1317.3
2015-Jan-24 05:34N 53°05' E 004°25'1717.0
2015-Jan-24 04:33N 52°50' E 004°12'1616.3
2015-Jan-24 03:34N 52°39' E 003°52'6114.8
2015-Jan-23 23:26N 51°42' E 003°16'910.6
2015-Jan-23 22:33N 51°34' E 003°24'1010.6
2015-Jan-23 21:33N 51°26' E 003°35'1312.8
2015-Jan-23 20:34N 51°22' E 003°54'1110.9
2015-Jan-23 19:33N 51°24' E 004°11'5 4.9
2015-Jan-23 18:33N 51°21' E 004°17'1 0.7
2015-Jan-23 17:33N 51°20' E 004°18'1 1.2
2015-Jan-23 16:32N 51°19' E 004°19'0 0.0
2015-Jan-23 15:32N 51°19' E 004°19'0 0.0
2015-Jan-23 14:31N 51°19' E 004°19'0 0.0
2015-Jan-23 13:31N 51°19' E 004°19'0 0.0
2015-Jan-23 12:28N 51°19' E 004°19'0 0.0
2015-Jan-23 11:25N 51°19' E 004°19'0 0.0
2015-Jan-23 10:31N 51°19' E 004°19'0 0.0
2015-Jan-23 09:28N 51°19' E 004°19'0 0.0
2015-Jan-23 08:31N 51°19' E 004°19'0 0.0
2015-Jan-23 07:28N 51°19' E 004°19'0 0.0
2015-Jan-23 06:22N 51°19' E 004°19'0 0.0
2015-Jan-23 05:28N 51°19' E 004°19'0 0.0
2015-Jan-23 04:25N 51°19' E 004°19'0 0.4
2015-Jan-23 03:33N 51°19' E 004°19'3 2.7
2015-Jan-23 02:33N 51°17' E 004°20'2 2.4
2015-Jan-23 01:33N 51°18' E 004°17'10 9.8
2015-Jan-23 00:33N 51°23' E 004°03'7 6.7
2015-Jan-22 23:33N 51°21' E 003°52'9 8.7
2015-Jan-22 22:33N 51°26' E 003°41'1111.1
2015-Jan-22 21:33N 51°32' E 003°26'1312.8
2015-Jan-22 20:33N 51°42' E 003°15'8 7.6
2015-Jan-22 19:31N 51°49' E 003°22'0 0.1
2015-Jan-22 17:16N 51°49' E 003°22'0 0.1
2015-Jan-22 16:28N 51°49' E 003°22'0 0.1
2015-Jan-22 15:28N 51°49' E 003°22'0 0.0
2015-Jan-22 03:21N 51°49' E 003°22'0 0.0
2015-Jan-22 02:33N 51°49' E 003°22'0 0.1
2015-Jan-22 00:12N 51°49' E 003°22'0 0.0
2015-Jan-21 22:33N 51°49' E 003°22'0 0.0
2015-Jan-21 21:27N 51°49' E 003°22'0 0.0
2015-Jan-21 20:33N 51°49' E 003°22'0 0.1
2015-Jan-21 19:33N 51°49' E 003°22'0 0.1
2015-Jan-21 18:24N 51°49' E 003°22'0 0.1
2015-Jan-21 17:33N 51°49' E 003°22'0 0.0
2015-Jan-21 16:18N 51°49' E 003°22'4 5.3
2015-Jan-21 15:31N 51°53' E 003°21'1111.9
2015-Jan-21 14:33N 52°05' E 003°22'1212.0
2015-Jan-21 13:30N 52°17' E 003°26'9313.3
2015-Jan-21 06:33N 53°32' E 004°55'1212.4
2015-Jan-21 05:33N 53°36' E 005°15'1212.4
2015-Jan-21 04:33N 53°40' E 005°35'1414.3
2015-Jan-21 03:33N 53°45' E 005°57'4614.7
2015-Jan-21 00:25N 53°58' E 007°13'1213.9
2015-Jan-20 23:33N 54°00' E 007°32'1313.2
2015-Jan-20 22:33N 54°01' E 007°55'1010.2
2015-Jan-20 21:33N 54°02' E 008°12'3 3.4
2015-Jan-20 20:33N 54°00' E 008°17'7 7.5
2015-Jan-20 19:33N 53°59' E 008°30'1010.5
2015-Jan-20 18:33N 53°52' E 008°44'1212.2
2015-Jan-20 17:33N 53°52' E 009°05'1211.6
2015-Jan-20 16:33N 53°48' E 009°23'1111.3
2015-Jan-20 15:33N 53°38' E 009°32'9 9.3
2015-Jan-20 14:33N 53°34' E 009°46'7 7.0
2015-Jan-20 13:33N 53°31' E 009°56'0 0.3
2015-Jan-20 12:32N 53°30' E 009°56'0 0.0
2015-Jan-20 11:32N 53°30' E 009°56'0 0.0
2015-Jan-20 10:32N 53°30' E 009°56'0 0.0
2015-Jan-20 09:32N 53°30' E 009°56'0 0.0
2015-Jan-20 08:31N 53°30' E 009°56'3 2.6
2015-Jan-20 07:33N 53°32' E 009°54'1010.3
2015-Jan-20 06:33N 53°35' E 009°37'1212.2
2015-Jan-20 05:33N 53°45' E 009°25'1111.5
2015-Jan-20 04:33N 53°53' E 009°11'2 1.7
2015-Jan-20 03:33N 53°54' E 009°10'8 8.2
2015-Jan-20 02:33N 54°01' E 009°18'8 8.1
2015-Jan-20 01:31N 54°09' E 009°22'7 5.3
2015-Jan-20 00:13N 54°12' E 009°33'3 4.0
2015-Jan-19 23:31N 54°14' E 009°36'7 6.9
2015-Jan-19 22:33N 54°19' E 009°43'6 6.5
2015-Jan-19 21:33N 54°21' E 009°54'6 5.8
2015-Jan-19 20:33N 54°22' E 010°04'3 2.9
2015-Jan-19 19:33N 54°22' E 010°08'1 1.0
2015-Jan-19 18:33N 54°22' E 010°10'9 7.6
2015-Jan-19 17:26N 54°30' E 010°18'6 7.0
2015-Jan-19 16:32N 54°35' E 010°24'20 9.0
2015-Jan-19 14:22N 54°36' E 010°58'1316.6
2015-Jan-19 13:33N 54°33' E 011°21'1716.8
2015-Jan-19 12:33N 54°27' E 011°47'1514.6
2015-Jan-19 11:33N 54°30' E 012°12'1715.9
2015-Jan-19 10:28N 54°43' E 012°31'3816.4
2015-Jan-19 08:10N 54°58' E 013°32'1615.2
2015-Jan-19 07:08N 55°03' E 013°57'915.0
2015-Jan-19 06:33N 55°09' E 014°09'1616.0
2015-Jan-19 05:33N 55°21' E 014°28'1615.7
2015-Jan-19 04:33N 55°30' E 014°49'1515.2
2015-Jan-19 03:33N 55°38' E 015°13'128 8.9
2015-Jan-18 13:07N 57°19' E 017°35'  

Dump ship's entire track history